Time;durP1;ratioP1;P1;durP2;ratioP2;P2;SDS_P1;SDS_P2;PMS_P1;PMS_P2;Temp;Humidity;BMP_temperature;BMP_pressure;BME280_temperature;BME280_humidity;BME280_pressure;Samples;Min_cycle;Max_cycle;Signal;HPM_P1;HPM_P2
2023/09/15 00:00:41;;;;;;;8.68;4.20;;;13.20;99.90;;;;;;5068110;28;20122;-73
2023/09/15 00:03:07;;;;;;;7.63;4.15;;;13.20;99.90;;;;;;5054704;28;20098;-74
2023/09/15 00:05:33;;;;;;;9.48;4.53;;;13.20;99.90;;;;;;5054205;28;20040;-74
2023/09/15 00:08:04;;;;;;;7.82;3.97;;;13.10;99.90;;;;;;5054880;28;20450;-73
2023/09/15 00:10:38;;;;;;;7.90;4.10;;;13.10;99.90;;;;;;5054596;28;20051;-73
2023/09/15 00:13:04;;;;;;;8.20;4.28;;;13.00;99.90;;;;;;5053822;28;20480;-73
2023/09/15 00:15:30;;;;;;;10.45;4.22;;;13.00;99.90;;;;;;5054821;28;20056;-74
2023/09/15 00:17:56;;;;;;;9.55;4.30;;;13.00;99.90;;;;;;5054320;28;20047;-74
2023/09/15 00:20:25;;;;;;;8.02;4.20;;;12.90;99.90;;;;;;5053990;28;20048;-73
2023/09/15 00:22:53;;;;;;;9.88;4.35;;;12.90;99.90;;;;;;5054302;28;20052;-74
2023/09/15 00:25:25;;;;;;;8.10;4.28;;;12.90;99.90;;;;;;5050760;28;20083;-74
2023/09/15 00:27:56;;;;;;;7.90;4.47;;;12.90;99.90;;;;;;5033928;28;20055;-73
2023/09/15 00:30:23;;;;;;;9.60;4.22;;;12.90;99.90;;;;;;5034869;28;20127;-73
2023/09/15 00:32:49;;;;;;;9.05;4.10;;;12.90;99.90;;;;;;5052246;28;20041;-73
2023/09/15 00:35:16;;;;;;;11.05;4.45;;;12.90;99.90;;;;;;5040194;28;20127;-73
2023/09/15 00:37:43;;;;;;;9.23;4.20;;;12.80;99.90;;;;;;5072661;28;20040;-73
2023/09/15 00:40:10;;;;;;;8.13;3.78;;;12.80;99.90;;;;;;5071163;28;20059;-73
2023/09/15 00:42:37;;;;;;;7.95;4.22;;;12.80;99.90;;;;;;5072412;28;20483;-73
2023/09/15 00:45:06;;;;;;;9.18;3.90;;;12.80;99.90;;;;;;5050824;28;20495;-73
2023/09/15 00:47:34;;;;;;;7.80;4.30;;;12.90;99.90;;;;;;5051844;28;20040;-73
2023/09/15 00:50:00;;;;;;;6.82;3.92;;;12.90;99.90;;;;;;5034301;28;20052;-73
2023/09/15 00:52:27;;;;;;;8.63;3.80;;;12.80;99.90;;;;;;5034356;28;20072;-73
2023/09/15 00:54:54;;;;;;;10.30;4.13;;;12.80;99.90;;;;;;5038109;28;20064;-73
2023/09/15 00:57:20;;;;;;;8.65;3.97;;;12.80;99.90;;;;;;5072443;28;20090;-73
2023/09/15 00:59:47;;;;;;;9.15;4.38;;;12.80;99.90;;;;;;5054003;28;20052;-73
2023/09/15 01:02:19;;;;;;;10.10;4.10;;;12.70;99.90;;;;;;5053789;28;20127;-73
2023/09/15 01:04:45;;;;;;;7.55;3.83;;;12.70;99.90;;;;;;5053486;28;20139;-73
2023/09/15 01:07:12;;;;;;;8.73;4.32;;;12.70;99.90;;;;;;5055100;28;20059;-74
2023/09/15 01:09:39;;;;;;;8.95;4.40;;;12.70;99.90;;;;;;5057618;28;20062;-73
2023/09/15 01:12:07;;;;;;;7.60;4.22;;;12.60;99.90;;;;;;5058072;28;20213;-73
2023/09/15 01:14:34;;;;;;;9.43;4.47;;;12.50;99.90;;;;;;5057956;28;20044;-73
2023/09/15 01:17:16;;;;;;;9.45;4.22;;;12.60;99.90;;;;;;5056880;28;20056;-73
2023/09/15 01:20:10;;;;;;;9.57;4.05;;;12.60;99.90;;;;;;5058065;28;20424;-73
2023/09/15 01:23:00;;;;;;;8.48;4.30;;;12.50;99.90;;;;;;5057421;28;20063;-73
2023/09/15 01:25:51;;;;;;;12.10;5.22;;;12.50;99.90;;;;;;5058021;28;20084;-73
2023/09/15 01:28:45;;;;;;;9.82;4.10;;;12.40;99.90;;;;;;5076087;28;20054;-73
2023/09/15 01:31:11;;;;;;;8.55;4.50;;;12.40;99.90;;;;;;5057304;28;20372;-73
2023/09/15 01:33:38;;;;;;;8.45;4.50;;;12.40;99.90;;;;;;5057955;28;20127;-72
2023/09/15 01:36:06;;;;;;;8.18;4.25;;;12.40;99.90;;;;;;5074674;28;20032;-73
2023/09/15 01:38:33;;;;;;;7.38;4.20;;;12.40;99.90;;;;;;5056814;28;20139;-73
2023/09/15 01:40:58;;;;;;;10.13;4.50;;;12.30;99.90;;;;;;5057239;28;20072;-73
2023/09/15 01:43:24;;;;;;;9.10;4.30;;;12.30;99.90;;;;;;5057234;28;20089;-73
2023/09/15 01:45:50;;;;;;;8.60;4.13;;;12.30;99.90;;;;;;5074904;28;20043;-73
2023/09/15 01:48:16;;;;;;;7.78;4.30;;;12.30;99.90;;;;;;5075773;28;20041;-73
2023/09/15 01:50:42;;;;;;;9.65;4.60;;;12.30;99.90;;;;;;5074218;28;20044;-73
2023/09/15 01:53:08;;;;;;;9.63;4.47;;;12.30;99.90;;;;;;5075031;28;20051;-73
2023/09/15 01:55:34;;;;;;;9.23;4.50;;;12.30;99.90;;;;;;5056817;28;20044;-73
2023/09/15 01:58:00;;;;;;;11.05;4.25;;;12.20;99.90;;;;;;5056197;28;20041;-73
2023/09/15 02:00:33;;;;;;;10.45;4.88;;;12.20;99.90;;;;;;5057278;28;20110;-73
2023/09/15 02:02:59;;;;;;;9.48;5.10;;;12.20;99.90;;;;;;5056879;28;20097;-73
2023/09/15 02:05:25;;;;;;;11.07;4.40;;;12.10;99.90;;;;;;5056172;28;20040;-73
2023/09/15 02:07:51;;;;;;;9.75;4.82;;;12.10;99.90;;;;;;5056688;28;20075;-74
2023/09/15 02:10:16;;;;;;;10.10;4.68;;;12.10;99.90;;;;;;5057230;28;20538;-73
2023/09/15 02:12:42;;;;;;;10.13;4.30;;;12.10;99.90;;;;;;5056636;28;20392;-73
2023/09/15 02:15:08;;;;;;;9.32;4.10;;;12.10;99.90;;;;;;5074897;28;20468;-73
2023/09/15 02:17:34;;;;;;;11.15;5.03;;;12.10;99.90;;;;;;5057230;28;20115;-73
2023/09/15 02:20:00;;;;;;;9.35;4.50;;;12.10;99.90;;;;;;5051499;28;20571;-73
2023/09/15 02:22:27;;;;;;;7.88;4.80;;;12.00;99.90;;;;;;5037050;28;20041;-73
2023/09/15 02:24:52;;;;;;;9.23;4.65;;;12.00;99.90;;;;;;5036474;28;20128;-73
2023/09/15 02:27:18;;;;;;;9.70;4.50;;;12.00;99.90;;;;;;5054111;28;20148;-73
2023/09/15 02:29:44;;;;;;;8.73;4.85;;;12.00;99.90;;;;;;5069858;28;20474;-73
2023/09/15 02:32:09;;;;;;;7.57;4.60;;;11.90;99.90;;;;;;5073284;28;20040;-73
2023/09/15 02:34:35;;;;;;;7.35;4.50;;;11.90;99.90;;;;;;5055985;28;20052;-73
2023/09/15 02:37:00;;;;;;;11.35;5.03;;;11.90;99.90;;;;;;5074352;28;20080;-73
2023/09/15 02:39:26;;;;;;;9.13;4.40;;;11.90;99.90;;;;;;5056151;28;20048;-73
2023/09/15 02:41:52;;;;;;;10.10;4.60;;;11.90;99.90;;;;;;5055534;28;20074;-73
2023/09/15 02:44:17;;;;;;;10.93;4.93;;;11.80;99.90;;;;;;5056608;28;20048;-73
2023/09/15 02:46:43;;;;;;;11.23;4.65;;;11.80;99.90;;;;;;5073689;28;20082;-72
2023/09/15 02:49:09;;;;;;;8.73;4.22;;;11.80;99.90;;;;;;5074011;28;20098;-73
2023/09/15 02:51:35;;;;;;;10.38;5.15;;;11.80;99.90;;;;;;5052335;28;20033;-73
2023/09/15 02:54:00;;;;;;;8.45;4.57;;;11.80;99.90;;;;;;5053357;28;20510;-72
2023/09/15 02:56:27;;;;;;;8.02;4.45;;;11.80;99.90;;;;;;5036612;28;20053;-73
2023/09/15 02:58:52;;;;;;;8.07;4.38;;;11.80;99.90;;;;;;5053893;28;20056;-73
2023/09/15 03:01:18;;;;;;;12.88;5.40;;;11.80;99.90;;;;;;5068798;28;20105;-73
2023/09/15 03:03:46;;;;;;;10.93;5.20;;;11.90;99.90;;;;;;5056120;28;20499;-73
2023/09/15 03:06:12;;;;;;;7.95;4.20;;;11.80;99.90;;;;;;5056332;28;20082;-73
2023/09/15 03:08:37;;;;;;;9.23;4.88;;;11.70;99.90;;;;;;5073068;28;20036;-73
2023/09/15 03:11:03;;;;;;;7.93;4.53;;;11.70;99.90;;;;;;5055562;28;20502;-73
2023/09/15 03:13:29;;;;;;;8.40;4.47;;;11.70;99.90;;;;;;5056200;28;20036;-72
2023/09/15 03:15:54;;;;;;;8.00;5.03;;;11.70;99.90;;;;;;5054836;28;20532;-73
2023/09/15 03:18:21;;;;;;;7.25;4.82;;;11.70;99.90;;;;;;5073708;28;20551;-73
2023/09/15 03:20:47;;;;;;;11.73;4.40;;;11.70;99.90;;;;;;5055883;28;20044;-73
2023/09/15 03:23:12;;;;;;;10.45;4.47;;;11.70;99.90;;;;;;5051431;28;20094;-73
2023/09/15 03:25:38;;;;;;;11.80;4.70;;;11.70;99.90;;;;;;5035682;28;20037;-73
2023/09/15 03:28:04;;;;;;;8.40;4.43;;;11.60;99.90;;;;;;5035471;28;20041;-73
2023/09/15 03:30:29;;;;;;;8.00;4.80;;;11.60;99.90;;;;;;5051983;28;20136;-73
2023/09/15 03:32:55;;;;;;;10.20;4.60;;;11.60;99.90;;;;;;5048603;28;20080;-73
2023/09/15 03:35:20;;;;;;;10.10;4.95;;;12.20;99.90;;;;;;5073340;28;20036;-73
2023/09/15 03:37:46;;;;;;;8.32;4.40;;;11.60;99.90;;;;;;5054835;28;20478;-73
2023/09/15 03:40:12;;;;;;;7.53;4.10;;;11.60;99.90;;;;;;5072165;28;20072;-73
2023/09/15 03:42:38;;;;;;;7.60;4.40;;;11.60;99.90;;;;;;5073449;28;20047;-72
2023/09/15 03:45:08;;;;;;;10.80;4.78;;;11.60;99.90;;;;;;5054360;28;20072;-73
2023/09/15 03:47:36;;;;;;;9.27;4.90;;;11.60;99.90;;;;;;5054818;28;20044;-73
2023/09/15 03:50:03;;;;;;;8.77;4.82;;;11.60;99.90;;;;;;5054167;28;20385;-73
2023/09/15 03:52:28;;;;;;;8.60;4.50;;;11.50;99.90;;;;;;5055430;28;20040;-73
2023/09/15 03:55:00;;;;;;;7.40;3.80;;;11.50;99.90;;;;;;5054907;28;20056;-72
2023/09/15 03:57:32;;;;;;;11.82;4.43;;;11.50;99.90;;;;;;5072266;28;20131;-73
2023/09/15 04:00:00;;;;;;;8.55;4.43;;;11.50;99.90;;;;;;5054945;28;20372;-72
2023/09/15 04:02:28;;;;;;;6.70;4.57;;;11.60;99.90;;;;;;5055117;28;20046;-72
2023/09/15 04:04:54;;;;;;;10.98;4.75;;;11.50;99.90;;;;;;5053917;28;20048;-73
2023/09/15 04:07:20;;;;;;;9.07;4.20;;;11.40;99.90;;;;;;5054682;28;20441;-73
2023/09/15 04:09:45;;;;;;;6.97;4.40;;;11.50;99.90;;;;;;5072958;28;20565;-73
2023/09/15 04:12:11;;;;;;;7.68;4.68;;;11.40;99.90;;;;;;5053905;28;20047;-73
2023/09/15 04:14:37;;;;;;;9.82;4.35;;;11.40;99.90;;;;;;5072242;28;20084;-72
2023/09/15 04:17:03;;;;;;;11.20;4.40;;;11.40;99.90;;;;;;5072031;28;20040;-73
2023/09/15 04:19:30;;;;;;;9.63;4.60;;;11.40;99.90;;;;;;5071956;28;20044;-73
2023/09/15 04:21:55;;;;;;;12.85;4.45;;;11.40;99.90;;;;;;5072571;28;20041;-73
2023/09/15 04:24:21;;;;;;;12.98;4.43;;;11.40;99.90;;;;;;5054710;28;20039;-73
2023/09/15 04:26:47;;;;;;;9.02;4.38;;;11.40;99.90;;;;;;5053825;28;20430;-72
2023/09/15 04:29:12;;;;;;;8.27;4.40;;;11.30;99.90;;;;;;5054888;28;20044;-72
2023/09/15 04:31:38;;;;;;;10.23;4.47;;;11.30;99.90;;;;;;5054265;28;20040;-72
2023/09/15 04:34:04;;;;;;;8.80;4.28;;;11.30;99.90;;;;;;5053322;28;20041;-73
2023/09/15 04:36:30;;;;;;;6.75;4.35;;;11.30;99.90;;;;;;5054695;28;20040;-72
2023/09/15 04:38:56;;;;;;;10.85;4.25;;;11.30;99.90;;;;;;5072022;28;20083;-72
2023/09/15 04:41:22;;;;;;;9.20;4.35;;;11.30;99.90;;;;;;5053148;28;20385;-73
2023/09/15 04:43:47;;;;;;;6.82;4.25;;;11.30;99.90;;;;;;5053829;28;20048;-73
2023/09/15 04:46:13;;;;;;;8.00;4.53;;;11.30;99.90;;;;;;5053653;28;20040;-73
2023/09/15 04:48:39;;;;;;;8.15;4.30;;;11.20;99.90;;;;;;5050669;28;20072;-73
2023/09/15 04:51:05;;;;;;;7.32;3.90;;;11.20;99.90;;;;;;5034220;28;20052;-73
2023/09/15 04:53:32;;;;;;;7.93;3.47;;;11.20;99.90;;;;;;5033940;28;20053;-73
2023/09/15 04:55:58;;;;;;;10.70;4.00;;;11.20;99.90;;;;;;5051716;28;20056;-72
2023/09/15 04:58:23;;;;;;;10.38;4.63;;;11.20;99.90;;;;;;5051192;28;20036;-72
2023/09/15 05:00:49;;;;;;;9.27;3.80;;;11.20;99.90;;;;;;5053231;28;20141;-72
2023/09/15 05:03:14;;;;;;;7.28;4.32;;;11.20;99.90;;;;;;5054291;28;20055;-72
2023/09/15 05:05:40;;;;;;;9.40;4.18;;;11.20;99.90;;;;;;5054204;28;20041;-75
2023/09/15 05:08:06;;;;;;;;;;;11.20;99.90;;;;;;5052788;28;20056;-72
2023/09/15 05:10:32;;;;;;;7.85;4.00;;;11.30;99.90;;;;;;5054098;28;20015;-77
2023/09/15 05:12:58;;;;;;;11.02;4.47;;;11.10;99.90;;;;;;5050127;28;20033;-75
2023/09/15 05:15:24;;;;;;;8.13;4.43;;;11.10;99.90;;;;;;5053667;28;20044;-76
2023/09/15 05:17:50;;;;;;;10.02;4.43;;;11.20;99.90;;;;;;5070199;28;20550;-71
2023/09/15 05:20:15;;;;;;;10.32;4.78;;;11.10;99.90;;;;;;5044872;28;20045;-75
2023/09/15 05:22:41;;;;;;;11.63;4.43;;;11.10;99.90;;;;;;5033307;28;20057;-73
2023/09/15 05:25:07;;;;;;;10.10;4.30;;;11.40;99.90;;;;;;5037510;28;20135;-73
2023/09/15 05:27:33;;;;;;;9.70;4.45;;;11.20;99.90;;;;;;5034196;28;20547;-74
2023/09/15 05:29:59;;;;;;;12.98;4.65;;;11.80;99.90;;;;;;5052800;28;20044;-72
2023/09/15 05:32:25;;;;;;;9.57;4.50;;;11.20;99.90;;;;;;5053800;28;20449;-72
2023/09/15 05:34:50;;;;;;;8.93;4.72;;;11.20;99.90;;;;;;5053464;28;20045;-71
2023/09/15 05:37:16;;;;;;;9.95;4.70;;;11.20;99.90;;;;;;5053258;28;20047;-71
2023/09/15 05:39:45;;;;;;;9.18;4.75;;;11.40;99.90;;;;;;5071274;28;20095;-72
2023/09/15 05:42:10;;;;;;;11.63;4.97;;;11.30;99.90;;;;;;5070656;28;20051;-71
2023/09/15 05:44:36;;;;;;;9.07;4.80;;;11.30;99.90;;;;;;5053016;28;20033;-71
2023/09/15 05:47:02;;;;;;;9.18;4.60;;;11.30;99.90;;;;;;5053433;28;20048;-71
2023/09/15 05:49:27;;;;;;;9.10;4.88;;;11.30;99.90;;;;;;5052936;28;20043;-72
2023/09/15 05:51:53;;;;;;;9.23;4.60;;;11.30;99.90;;;;;;5053412;28;20454;-71
2023/09/15 05:54:19;;;;;;;;;;;11.30;99.90;;;;;;5073184;28;20044;-72
2023/09/15 05:56:45;;;;;;;12.70;4.50;;;11.30;99.90;;;;;;5055703;28;20694;-74
2023/09/15 05:59:11;;;;;;;7.82;4.32;;;11.30;99.90;;;;;;5056729;28;20098;-72
2023/09/15 06:01:37;;;;;;;10.52;4.63;;;11.40;99.90;;;;;;5057166;28;20135;-72
2023/09/15 06:04:04;;;;;;;9.45;5.10;;;11.40;99.90;;;;;;5073516;28;20047;-74
2023/09/15 06:06:30;;;;;;;6.55;4.35;;;11.50;99.90;;;;;;5057125;28;20050;-72
2023/09/15 06:08:55;;;;;;;10.95;4.70;;;11.90;99.90;;;;;;5055566;28;20139;-71
2023/09/15 06:11:21;;;;;;;10.00;4.80;;;11.60;99.90;;;;;;5056057;28;20045;-72
2023/09/15 06:13:47;;;;;;;8.82;5.00;;;11.60;99.90;;;;;;5052786;28;20049;-71
2023/09/15 06:16:12;;;;;;;10.10;5.07;;;11.60;99.90;;;;;;5036739;28;20059;-73
2023/09/15 06:18:38;;;;;;;9.05;4.63;;;11.70;99.90;;;;;;5052228;28;20602;-74
2023/09/15 06:21:05;;;;;;;9.50;4.55;;;11.70;99.90;;;;;;5047719;28;20079;-76
2023/09/15 06:23:31;;;;;;;9.00;4.88;;;11.80;99.90;;;;;;5073078;28;20041;-76
2023/09/15 06:25:57;;;;;;;8.50;4.80;;;11.90;99.90;;;;;;5071547;28;20052;-76
2023/09/15 06:28:22;;;;;;;9.98;4.60;;;11.90;99.90;;;;;;5072792;28;20447;-76
2023/09/15 06:30:48;;;;;;;10.77;5.03;;;12.00;99.90;;;;;;5053616;28;20514;-76
2023/09/15 06:33:14;;;;;;;10.27;4.65;;;12.10;99.90;;;;;;5053761;28;20047;-75
2023/09/15 06:35:39;;;;;;;10.10;4.65;;;12.10;99.90;;;;;;5072277;28;20487;-76
2023/09/15 06:38:06;;;;;;;7.25;4.35;;;12.20;99.90;;;;;;5054357;28;20044;-75
2023/09/15 06:40:35;;;;;;;10.93;4.60;;;12.20;99.90;;;;;;5054386;28;20040;-76
2023/09/15 06:43:04;;;;;;;12.38;4.30;;;12.30;99.90;;;;;;5055880;28;20049;-76
2023/09/15 06:45:31;;;;;;;13.30;4.22;;;12.40;99.90;;;;;;5053205;28;20057;-76
2023/09/15 06:47:58;;;;;;;7.40;4.18;;;12.60;99.90;;;;;;5035470;28;20044;-76
2023/09/15 06:50:24;;;;;;;9.80;4.55;;;12.60;99.90;;;;;;5036759;28;20056;-76
2023/09/15 06:52:50;;;;;;;9.32;4.03;;;12.70;99.90;;;;;;5035628;28;20514;-76
2023/09/15 06:55:16;;;;;;;9.40;4.32;;;12.70;99.90;;;;;;5046658;28;20056;-76
2023/09/15 06:57:41;;;;;;;7.85;4.13;;;12.80;99.90;;;;;;5056287;28;20044;-76
2023/09/15 07:00:09;;;;;;;6.75;4.00;;;12.90;99.90;;;;;;5055532;28;20048;-76
2023/09/15 07:02:34;;;;;;;11.07;4.07;;;13.00;99.90;;;;;;5056564;28;20040;-77
2023/09/15 07:05:04;;;;;;;7.53;3.95;;;13.10;99.90;;;;;;5073817;28;20047;-77
2023/09/15 07:07:32;;;;;;;10.38;4.10;;;13.10;99.90;;;;;;5055524;28;20036;-77
2023/09/15 07:09:58;;;;;;;10.57;4.40;;;13.20;99.90;;;;;;5055231;28;20105;-76
2023/09/15 07:12:24;;;;;;;7.78;4.00;;;13.30;99.90;;;;;;5052283;28;20044;-76
2023/09/15 07:14:50;;;;;;;8.05;3.70;;;13.40;99.90;;;;;;5034931;28;20048;-76
2023/09/15 07:17:16;;;;;;;9.63;4.20;;;13.50;99.90;;;;;;5035923;28;20037;-75
2023/09/15 07:19:44;;;;;;;8.55;4.13;;;13.60;99.90;;;;;;5064171;28;20037;-75
2023/09/15 07:22:10;;;;;;;9.57;4.10;;;13.70;99.90;;;;;;5054551;28;20087;-75
2023/09/15 07:24:41;;;;;;;9.48;4.00;;;13.80;99.90;;;;;;5055927;28;20048;-76
2023/09/15 07:27:10;;;;;;;8.35;3.88;;;14.30;99.90;;;;;;5055296;28;20033;-76
2023/09/15 07:29:37;;;;;;;6.63;3.40;;;15.60;99.90;;;;;;5053209;28;20432;-76
2023/09/15 07:32:04;;;;;;;8.23;4.10;;;17.00;99.90;;;;;;5073377;28;20090;-76
2023/09/15 07:34:29;;;;;;;8.63;3.45;;;18.50;99.90;;;;;;5055350;28;20048;-76
2023/09/15 07:36:55;;;;;;;8.32;3.50;;;19.70;99.90;;;;;;5054740;28;20106;-76
2023/09/15 07:39:21;;;;;;;7.30;3.60;;;20.80;99.90;;;;;;5054738;28;20468;-76
2023/09/15 07:41:46;;;;;;;6.78;2.83;;;21.60;99.90;;;;;;5055137;28;20106;-76
2023/09/15 07:44:15;;;;;;;5.93;3.10;;;22.30;99.90;;;;;;5054561;28;20052;-76
2023/09/15 07:46:44;;;;;;;6.63;3.22;;;23.00;99.00;;;;;;5055495;28;20060;-76
2023/09/15 07:49:10;;;;;;;7.47;3.30;;;23.60;97.40;;;;;;5054260;28;20089;-76
2023/09/15 07:51:35;;;;;;;5.70;2.58;;;24.20;96.30;;;;;;5055255;28;20062;-76
2023/09/15 07:54:01;;;;;;;6.18;3.00;;;24.60;95.70;;;;;;5054359;28;20080;-74
2023/09/15 07:56:27;;;;;;;5.93;2.83;;;24.90;94.50;;;;;;5050584;28;20044;-74
2023/09/15 07:58:53;;;;;;;6.68;3.47;;;25.20;94.30;;;;;;5067990;28;20037;-74
2023/09/15 08:01:22;;;;;;;9.85;2.83;;;25.10;93.40;;;;;;5035102;28;20480;-74
2023/09/15 08:03:48;;;;;;;6.82;2.88;;;25.00;91.60;;;;;;5034310;28;20122;-74
2023/09/15 08:06:15;;;;;;;9.23;2.88;;;25.20;93.20;;;;;;5053197;28;20578;-74
2023/09/15 08:08:42;;;;;;;5.38;2.75;;;25.80;93.30;;;;;;5040419;28;20078;-75
2023/09/15 08:11:08;;;;;;;6.80;2.75;;;25.90;91.50;;;;;;5071689;28;20573;-75
2023/09/15 08:13:33;;;;;;;8.57;2.95;;;25.90;92.00;;;;;;5055104;28;20072;-75
2023/09/15 08:15:59;;;;;;;6.25;2.80;;;26.30;92.20;;;;;;5054318;28;20463;-75
2023/09/15 08:18:25;;;;;;;8.90;2.65;;;26.90;91.20;;;;;;5050120;28;20092;-75
2023/09/15 08:20:50;;;;;;;6.95;2.80;;;27.20;91.20;;;;;;5041676;28;20087;-75
2023/09/15 08:23:16;;;;;;;7.05;3.28;;;27.70;90.70;;;;;;5054783;28;20462;-75
2023/09/15 08:25:42;;;;;;;5.65;2.70;;;28.00;90.40;;;;;;5045836;28;20045;-76
2023/09/15 08:28:08;;;;;;;4.78;2.50;;;28.30;89.20;;;;;;5036965;28;20072;-76
2023/09/15 08:30:35;;;;;;;4.97;2.70;;;28.60;88.80;;;;;;5054564;28;20117;-76
2023/09/15 08:33:02;;;;;;;6.72;2.80;;;28.30;87.50;;;;;;5049298;28;20037;-76
2023/09/15 08:35:32;;;;;;;4.70;2.63;;;28.40;88.60;;;;;;5052758;28;20044;-76
2023/09/15 08:37:58;;;;;;;6.25;2.78;;;28.30;88.00;;;;;;5053987;28;20090;-75
2023/09/15 08:40:27;;;;;;;6.10;2.80;;;28.10;87.40;;;;;;5053838;28;20052;-77
2023/09/15 08:42:52;;;;;;;6.05;2.53;;;28.80;87.10;;;;;;5054335;28;20471;-76
2023/09/15 08:45:20;;;;;;;5.35;2.80;;;28.30;87.70;;;;;;5053316;28;20059;-76
2023/09/15 08:47:54;;;;;;;6.25;2.42;;;28.60;86.50;;;;;;5050727;28;20049;-76
2023/09/15 08:50:20;;;;;;;6.30;2.38;;;29.10;86.60;;;;;;5034665;28;20060;-76
2023/09/15 08:52:46;;;;;;;5.97;2.92;;;29.20;85.90;;;;;;5033662;28;20139;-76
2023/09/15 08:55:12;;;;;;;6.03;2.67;;;29.50;85.30;;;;;;5034439;28;20049;-76
2023/09/15 08:57:39;;;;;;;5.07;2.65;;;29.50;85.10;;;;;;5042921;28;20098;-76
2023/09/15 09:00:09;;;;;;;4.88;2.70;;;29.10;86.00;;;;;;5053728;28;20052;-76
2023/09/15 09:02:35;;;;;;;6.00;2.80;;;29.00;85.50;;;;;;5054625;28;20048;-76
2023/09/15 09:05:00;;;;;;;5.25;3.00;;;29.20;85.00;;;;;;5049833;28;20076;-76
2023/09/15 09:07:27;;;;;;;5.97;2.78;;;29.20;85.00;;;;;;5033809;28;20041;-75
2023/09/15 09:09:54;;;;;;;5.53;3.00;;;29.40;84.40;;;;;;5034060;28;20120;-77
2023/09/15 09:12:20;;;;;;;6.35;2.90;;;29.60;85.10;;;;;;5051909;28;20417;-76
2023/09/15 09:14:46;;;;;;;6.07;2.85;;;29.80;85.50;;;;;;5032742;28;20056;-76
2023/09/15 09:17:13;;;;;;;6.45;2.70;;;30.50;85.30;;;;;;5032008;28;20128;-76
2023/09/15 09:19:42;;;;;;;6.43;2.75;;;30.00;84.40;;;;;;5040623;28;20527;-76
2023/09/15 09:22:18;;;;;;;9.30;2.92;;;30.30;82.30;;;;;;5052884;28;20186;-76
2023/09/15 09:24:45;;;;;;;6.82;3.20;;;30.20;82.90;;;;;;5071672;28;20400;-76
2023/09/15 09:27:11;;;;;;;6.65;3.30;;;30.10;83.00;;;;;;5053015;28;20056;-76
2023/09/15 09:29:38;;;;;;;6.35;2.97;;;29.80;83.30;;;;;;5054938;28;20093;-76
2023/09/15 09:32:07;;;;;;;5.93;3.08;;;29.90;81.90;;;;;;5054223;28;20045;-76
2023/09/15 09:34:33;;;;;;;6.65;2.95;;;29.90;82.70;;;;;;5036881;28;20083;-76
2023/09/15 09:36:59;;;;;;;6.60;2.95;;;30.00;83.20;;;;;;5052164;28;20076;-76
2023/09/15 09:39:26;;;;;;;5.65;3.10;;;30.30;83.80;;;;;;5057419;28;20059;-76
2023/09/15 09:41:52;;;;;;;7.78;3.13;;;30.50;82.40;;;;;;5056082;28;20838;-76
2023/09/15 09:44:20;;;;;;;6.40;3.45;;;30.60;81.90;;;;;;5045795;28;20044;-76
2023/09/15 09:46:45;;;;;;;8.48;3.10;;;30.10;82.40;;;;;;5048698;28;20576;-77
2023/09/15 09:49:12;;;;;;;7.13;3.15;;;30.20;83.20;;;;;;5053252;28;20091;-77
2023/09/15 09:51:39;;;;;;;4.90;3.50;;;30.70;81.20;;;;;;5037675;28;20129;-77
2023/09/15 09:54:10;;;;;;;6.38;3.03;;;30.70;81.00;;;;;;5041985;28;20051;-78
2023/09/15 09:56:35;;;;;;;7.03;3.08;;;30.40;82.30;;;;;;5053369;28;20047;-74
2023/09/15 09:59:10;;;;;;;7.70;3.50;;;30.40;82.30;;;;;;5037448;28;20045;-74
2023/09/15 10:01:36;;;;;;;6.53;3.83;;;30.80;80.70;;;;;;5037455;28;20037;-74
2023/09/15 10:04:05;;;;;;;7.05;3.55;;;30.70;79.00;;;;;;5054555;28;20055;-73
2023/09/15 10:06:33;;;;;;;7.25;3.75;;;30.60;78.00;;;;;;5037149;28;20087;-73
2023/09/15 10:08:59;;;;;;;5.63;3.80;;;30.40;79.30;;;;;;5056940;28;20399;-78
2023/09/15 10:11:26;;;;;;;7.07;3.53;;;30.00;80.30;;;;;;5074609;28;20032;-79
2023/09/15 10:13:53;;;;;;;7.22;3.90;;;29.80;80.00;;;;;;5057142;28;20385;-72
2023/09/15 10:16:19;;;;;;;8.32;3.80;;;29.70;80.30;;;;;;5074744;28;20044;-72
2023/09/15 10:18:46;;;;;;;7.35;4.18;;;29.70;82.00;;;;;;5056436;28;20411;-72
2023/09/15 10:21:13;;;;;;;8.10;3.75;;;29.80;81.50;;;;;;5057116;28;20051;-74
2023/09/15 10:23:39;;;;;;;8.07;4.22;;;30.10;80.30;;;;;;5056132;28;20063;-74
2023/09/15 10:26:09;;;;;;;7.57;4.35;;;30.40;78.30;;;;;;5055597;28;20140;-74
2023/09/15 10:28:35;;;;;;;6.38;4.20;;;30.00;78.00;;;;;;5056785;28;20040;-73
2023/09/15 10:31:01;;;;;;;10.43;4.80;;;29.70;78.80;;;;;;5055817;28;20080;-73
2023/09/15 10:33:27;;;;;;;8.52;5.72;;;29.60;80.00;;;;;;5052988;28;20079;-73
2023/09/15 10:36:04;;;;;;;6.82;4.78;;;29.60;80.50;;;;;;5036317;28;20048;-74
2023/09/15 10:38:32;;;;;;;8.48;5.25;;;29.80;81.00;;;;;;5036033;28;20045;-73
2023/09/15 10:41:01;;;;;;;10.15;5.30;;;30.20;79.60;;;;;;5035864;28;20447;-73
2023/09/15 10:43:26;;;;;;;10.85;5.00;;;30.70;79.80;;;;;;5049333;28;20080;-73
2023/09/15 10:45:53;;;;;;;8.20;5.03;;;30.70;80.10;;;;;;5055656;28;20079;-72
2023/09/15 10:48:19;;;;;;;7.78;4.60;;;31.00;79.20;;;;;;5056426;28;20051;-73
2023/09/15 10:50:46;;;;;;;9.32;5.40;;;31.20;77.80;;;;;;5056331;28;20048;-72
2023/09/15 10:53:14;;;;;;;8.85;5.35;;;31.40;77.70;;;;;;5052094;28;20080;-72
2023/09/15 10:55:43;;;;;;;7.72;5.13;;;31.40;76.80;;;;;;5054457;28;20101;-72
2023/09/15 10:58:09;;;;;;;7.05;4.90;;;31.30;76.10;;;;;;5073994;28;20028;-74
2023/09/15 11:00:35;;;;;;;8.77;4.93;;;31.40;78.20;;;;;;5055649;28;20041;-73
2023/09/15 11:03:04;;;;;;;7.55;4.35;;;31.20;77.50;;;;;;5054885;28;20045;-74
2023/09/15 11:05:29;;;;;;;7.85;4.80;;;31.60;77.00;;;;;;5073734;28;20490;-74
2023/09/15 11:07:56;;;;;;;7.32;5.22;;;31.70;77.80;;;;;;5054770;28;20197;-74
2023/09/15 11:10:32;;;;;;;6.60;4.50;;;31.00;78.90;;;;;;5055946;28;20051;-74
2023/09/15 11:13:01;;;;;;;;;;;31.40;79.80;;;;;;5055312;28;20068;-74
2023/09/15 11:15:28;;;;;;;7.43;5.07;;;31.70;78.20;;;;;;5055336;28;19920;-74
2023/09/15 11:17:54;;;;;;;7.63;5.00;;;31.70;76.60;;;;;;5055796;28;20052;-75
2023/09/15 11:20:20;;;;;;;8.43;4.90;;;31.80;78.40;;;;;;5073033;28;20742;-74
2023/09/15 11:22:48;;;;;;;7.22;4.60;;;32.50;76.50;;;;;;5052174;28;20075;-77
2023/09/15 11:25:15;;;;;;;7.07;4.38;;;32.20;76.30;;;;;;5036065;28;20140;-75
2023/09/15 11:27:46;;;;;;;9.82;4.63;;;32.10;75.80;;;;;;5041180;28;20397;-73
2023/09/15 11:30:12;;;;;;;5.40;3.67;;;31.80;76.30;;;;;;5073631;28;20094;-71
2023/09/15 11:32:38;;;;;;;8.77;4.78;;;31.90;79.10;;;;;;5055539;28;20040;-72
2023/09/15 11:35:12;;;;;;;6.30;4.22;;;32.10;76.70;;;;;;5051109;28;20108;-71
2023/09/15 11:37:40;;;;;;;7.70;4.38;;;32.10;76.70;;;;;;5035972;28;20045;-75
2023/09/15 11:40:07;;;;;;;7.15;4.78;;;32.30;77.60;;;;;;5050767;28;20092;-75
2023/09/15 11:42:33;;;;;;;6.35;4.28;;;32.00;74.00;;;;;;5034582;28;20045;-75
2023/09/15 11:45:00;;;;;;;7.15;4.18;;;32.10;77.40;;;;;;5035378;28;20091;-75
2023/09/15 11:47:31;;;;;;;7.93;4.30;;;32.40;75.70;;;;;;5049541;28;20098;-75
2023/09/15 11:50:00;;;;;;;8.10;4.18;;;32.50;75.60;;;;;;5054209;28;20091;-75
2023/09/15 11:52:26;;;;;;;6.80;4.10;;;33.00;75.00;;;;;;5054321;28;20052;-75
2023/09/15 11:54:52;;;;;;;6.65;3.83;;;32.90;74.60;;;;;;5054689;28;20051;-75
2023/09/15 11:57:17;;;;;;;9.80;4.53;;;33.20;73.20;;;;;;5053977;28;20053;-75
2023/09/15 11:59:43;;;;;;;9.50;4.25;;;33.20;73.00;;;;;;5055000;28;20052;-75
2023/09/15 12:02:09;;;;;;;7.10;3.83;;;33.30;72.30;;;;;;5072736;28;20385;-75
2023/09/15 12:04:35;;;;;;;5.97;4.00;;;33.20;71.90;;;;;;5054474;28;20040;-75
2023/09/15 12:07:00;;;;;;;5.93;4.10;;;33.00;74.30;;;;;;5054620;28;20519;-75
2023/09/15 12:09:26;;;;;;;8.63;4.55;;;32.60;73.40;;;;;;5054493;28;20051;-75
2023/09/15 12:11:52;;;;;;;7.05;3.97;;;32.70;72.60;;;;;;5054315;28;20049;-75
2023/09/15 12:14:18;;;;;;;6.32;3.50;;;32.10;73.80;;;;;;5053921;28;20052;-75
2023/09/15 12:16:46;;;;;;;6.03;3.88;;;31.60;77.30;;;;;;5054126;28;20549;-75
2023/09/15 12:19:12;;;;;;;5.63;3.25;;;31.50;74.60;;;;;;5072477;28;20049;-75
2023/09/15 12:21:38;;;;;;;5.82;3.55;;;31.60;74.30;;;;;;5054680;28;20048;-75
2023/09/15 12:24:09;;;;;;;5.72;3.80;;;31.90;72.70;;;;;;5053747;28;20048;-75
2023/09/15 12:26:37;;;;;;;7.50;3.70;;;31.20;75.30;;;;;;5054943;28;20040;-75
2023/09/15 12:29:03;;;;;;;7.57;3.40;;;30.90;75.10;;;;;;5072267;28;20049;-75
2023/09/15 12:31:29;;;;;;;7.47;3.30;;;31.00;74.50;;;;;;5053917;28;20131;-75
2023/09/15 12:33:55;;;;;;;6.32;3.33;;;30.80;76.30;;;;;;5054224;28;20170;-75
2023/09/15 12:36:22;;;;;;;6.00;3.33;;;30.80;76.00;;;;;;5054499;28;20094;-75
2023/09/15 12:38:48;;;;;;;7.95;3.65;;;30.60;77.10;;;;;;5052632;28;20066;-75
2023/09/15 12:41:14;;;;;;;6.60;3.20;;;31.00;74.90;;;;;;5054540;28;20082;-75
2023/09/15 12:43:40;;;;;;;7.03;3.20;;;31.00;74.40;;;;;;5054488;28;20037;-75